createdAt,value
2022-07-27T00:01:14.434Z,15.20
2022-07-27T00:03:43.835Z,15.25
2022-07-27T00:06:11.637Z,15.18
2022-07-27T00:08:39.598Z,15.17
2022-07-27T00:11:10.511Z,15.11
2022-07-27T00:13:38.906Z,15.07
2022-07-27T00:16:07.226Z,15.13
2022-07-27T00:18:35.502Z,15.09
2022-07-27T00:21:03.178Z,15.15
2022-07-27T00:23:30.915Z,15.17
2022-07-27T00:25:58.876Z,15.04
2022-07-27T00:28:26.595Z,15.04
2022-07-27T00:30:54.313Z,15.10
2022-07-27T00:33:22.169Z,15.00
2022-07-27T00:35:50.042Z,14.94
2022-07-27T00:38:17.705Z,14.90
2022-07-27T00:40:45.562Z,14.85
2022-07-27T00:43:13.410Z,14.81
2022-07-27T00:45:41.759Z,14.83
2022-07-27T00:48:09.813Z,14.86
2022-07-27T00:50:41.397Z,14.81
2022-07-27T00:53:09.964Z,14.81
2022-07-27T00:55:39.856Z,14.83
2022-07-27T00:58:11.531Z,14.79
2022-07-27T01:00:39.878Z,14.78
2022-07-27T01:03:09.418Z,14.80
2022-07-27T01:05:42.644Z,14.94
2022-07-27T01:08:12.749Z,14.98
2022-07-27T01:10:41.683Z,15.00
2022-07-27T01:13:12.665Z,15.03
2022-07-27T01:15:42.832Z,15.09
2022-07-27T01:18:31.043Z,15.13
2022-07-27T01:21:00.864Z,15.23
2022-07-27T01:23:29.574Z,15.40
2022-07-27T01:25:57.246Z,15.40
2022-07-27T01:28:25.243Z,15.55
2022-07-27T01:30:53.384Z,15.55
2022-07-27T01:33:26.060Z,15.70
2022-07-27T01:35:56.310Z,15.77
2022-07-27T01:38:24.517Z,15.86
2022-07-27T01:40:53.722Z,15.90
2022-07-27T01:43:22.937Z,15.90
2022-07-27T01:45:50.725Z,15.95
2022-07-27T01:48:19.554Z,15.96
2022-07-27T01:50:48.030Z,15.93
2022-07-27T01:53:15.815Z,16.05
2022-07-27T01:55:43.745Z,16.00
2022-07-27T01:58:12.222Z,16.01
2022-07-27T02:00:40.684Z,16.16
2022-07-27T02:03:10.442Z,16.22
2022-07-27T02:05:39.904Z,16.22
2022-07-27T02:08:08.416Z,16.34
2022-07-27T02:10:58.607Z,16.12
2022-07-27T02:13:26.973Z,15.96
2022-07-27T02:15:55.107Z,15.87
2022-07-27T02:18:32.820Z,15.79
2022-07-27T02:21:05.359Z,15.84
2022-07-27T02:23:34.325Z,15.79
2022-07-27T02:26:03.023Z,15.66
2022-07-27T02:28:30.919Z,15.61
2022-07-27T02:30:58.653Z,15.56
2022-07-27T02:33:26.507Z,15.54
2022-07-27T02:35:54.382Z,15.49
2022-07-27T02:38:22.136Z,15.50
2022-07-27T02:40:49.808Z,15.45
2022-07-27T02:43:17.698Z,15.43
2022-07-27T02:45:46.475Z,15.38
2022-07-27T02:48:14.686Z,15.32
2022-07-27T02:50:42.588Z,15.27
2022-07-27T02:53:10.373Z,15.30
2022-07-27T02:55:38.058Z,15.34
2022-07-27T02:58:05.953Z,15.37
2022-07-27T03:00:34.323Z,15.33
2022-07-27T03:03:02.280Z,15.36
2022-07-27T03:05:30.307Z,15.41
2022-07-27T03:07:58.062Z,15.44
2022-07-27T03:10:25.899Z,15.42
2022-07-27T03:12:53.884Z,15.50
2022-07-27T03:15:21.693Z,15.56
2022-07-27T03:17:49.395Z,15.57
2022-07-27T03:20:17.271Z,15.69
2022-07-27T03:22:44.994Z,15.69
2022-07-27T03:25:13.021Z,15.81
2022-07-27T03:27:40.969Z,15.86
2022-07-27T03:30:09.293Z,15.87
2022-07-27T03:32:37.089Z,15.92
2022-07-27T03:35:05.629Z,15.85
2022-07-27T03:37:33.774Z,15.93
2022-07-27T03:40:01.591Z,15.91
2022-07-27T03:42:29.717Z,15.94
2022-07-27T03:44:57.375Z,15.91
2022-07-27T03:47:25.105Z,15.92
2022-07-27T03:49:53.054Z,15.93
2022-07-27T03:52:21.195Z,15.99
2022-07-27T03:54:49.143Z,16.06
2022-07-27T03:57:17.068Z,16.09
2022-07-27T03:59:44.783Z,16.12
2022-07-27T04:02:12.613Z,16.11
2022-07-27T04:04:40.562Z,16.18
2022-07-27T04:07:09.101Z,16.28
2022-07-27T04:09:37.667Z,16.29
2022-07-27T04:12:07.633Z,16.25
2022-07-27T04:14:35.336Z,16.40
2022-07-27T04:17:03.309Z,16.44
2022-07-27T04:19:31.533Z,16.45
2022-07-27T04:21:59.536Z,16.53
2022-07-27T04:24:27.226Z,16.61
2022-07-27T04:26:55.103Z,16.60
2022-07-27T04:29:23.415Z,16.71
2022-07-27T04:31:51.353Z,16.87
2022-07-27T04:34:20.688Z,16.96
2022-07-27T04:36:49.944Z,16.96
2022-07-27T04:39:17.679Z,17.17
2022-07-27T04:41:45.831Z,17.28
2022-07-27T04:44:13.763Z,17.38
2022-07-27T04:46:41.559Z,17.35
2022-07-27T04:49:10.075Z,17.20
2022-07-27T04:51:38.019Z,17.21
2022-07-27T04:54:05.810Z,17.08
2022-07-27T04:56:33.761Z,16.99
2022-07-27T04:59:01.560Z,17.23
2022-07-27T05:01:34.714Z,17.23
2022-07-27T05:04:05.222Z,17.37
2022-07-27T05:06:33.549Z,17.53
2022-07-27T05:09:01.296Z,17.73
2022-07-27T05:11:29.347Z,17.88
2022-07-27T05:13:57.174Z,17.85
2022-07-27T05:16:28.776Z,17.57
2022-07-27T05:18:57.595Z,17.51
2022-07-27T05:21:25.904Z,17.22
2022-07-27T05:23:54.039Z,17.17
2022-07-27T05:26:23.190Z,16.96
2022-07-27T05:28:51.432Z,17.08
2022-07-27T05:31:19.230Z,16.98
2022-07-27T05:33:49.286Z,16.93
2022-07-27T05:36:18.572Z,16.89
2022-07-27T05:38:46.343Z,17.13
2022-07-27T05:41:14.275Z,17.00
2022-07-27T05:43:41.968Z,16.99
2022-07-27T05:46:09.715Z,17.09
2022-07-27T05:48:37.771Z,17.20
2022-07-27T05:51:05.531Z,17.14
2022-07-27T05:53:34.209Z,17.32
2022-07-27T05:56:02.104Z,17.22
2022-07-27T05:58:30.141Z,17.18
2022-07-27T06:00:59.038Z,17.08
2022-07-27T06:03:27.433Z,17.13
2022-07-27T06:06:15.159Z,17.31
2022-07-27T06:08:43.052Z,17.34
2022-07-27T06:11:11.139Z,17.32
2022-07-27T06:13:41.816Z,17.28
2022-07-27T06:16:10.906Z,17.24
2022-07-27T06:18:38.654Z,17.28
2022-07-27T06:21:06.658Z,17.55
2022-07-27T06:23:34.591Z,17.68
2022-07-27T06:26:02.283Z,17.81
2022-07-27T06:28:30.279Z,17.80
2022-07-27T06:30:58.411Z,17.73
2022-07-27T06:33:30.826Z,17.69
2022-07-27T06:36:00.255Z,17.78
2022-07-27T06:38:30.094Z,17.80
2022-07-27T06:40:58.339Z,17.78
2022-07-27T06:43:31.065Z,17.90
2022-07-27T06:45:59.474Z,17.88
2022-07-27T06:48:27.741Z,18.06
2022-07-27T06:50:56.294Z,18.04
2022-07-27T06:53:25.080Z,18.41
2022-07-27T06:55:53.644Z,18.53
2022-07-27T06:58:23.853Z,18.60
2022-07-27T07:00:51.663Z,18.60
2022-07-27T07:03:19.661Z,18.63
2022-07-27T07:05:47.805Z,18.78
2022-07-27T07:08:15.672Z,18.98
2022-07-27T07:10:45.162Z,19.58
2022-07-27T07:13:13.033Z,19.98
2022-07-27T07:15:42.261Z,20.07
2022-07-27T07:18:11.611Z,20.61
2022-07-27T07:20:39.958Z,21.10
2022-07-27T07:23:09.087Z,21.77
2022-07-27T07:25:37.714Z,23.08
2022-07-27T07:28:07.111Z,25.62
2022-07-27T07:30:35.271Z,27.74
2022-07-27T07:33:03.721Z,30.55
2022-07-27T07:35:32.431Z,32.38
2022-07-27T07:38:00.376Z,34.76
2022-07-27T07:40:44.947Z,35.95
2022-07-27T07:43:13.953Z,36.76
2022-07-27T07:45:51.615Z,38.34
2022-07-27T07:48:21.832Z,38.81
2022-07-27T07:50:53.254Z,39.79
2022-07-27T07:53:24.990Z,40.92
2022-07-27T07:55:56.179Z,41.58
2022-07-27T07:58:24.077Z,41.92
2022-07-27T08:00:51.845Z,42.12
2022-07-27T08:03:20.185Z,42.62
2022-07-27T08:05:48.386Z,42.02
2022-07-27T08:08:17.086Z,42.17
2022-07-27T08:10:45.224Z,42.42
2022-07-27T08:13:15.858Z,42.41
2022-07-27T08:15:46.939Z,42.22
2022-07-27T08:18:14.890Z,42.29
2022-07-27T08:20:42.618Z,42.71
2022-07-27T08:23:13.169Z,43.32
2022-07-27T08:25:41.067Z,42.52
2022-07-27T08:28:08.957Z,42.88
2022-07-27T08:30:37.457Z,42.86
2022-07-27T08:33:07.666Z,43.10
2022-07-27T08:35:36.785Z,43.62
2022-07-27T08:38:09.388Z,43.39
2022-07-27T08:40:41.899Z,42.89
2022-07-27T08:43:13.031Z,42.29
2022-07-27T08:45:41.938Z,42.43
2022-07-27T08:48:14.232Z,42.70
2022-07-27T08:50:43.229Z,42.66
2022-07-27T08:53:13.498Z,41.99
2022-07-27T08:55:46.651Z,42.39
2022-07-27T08:58:15.801Z,42.25
2022-07-27T09:00:50.188Z,41.66
2022-07-27T09:03:21.621Z,41.69
2022-07-27T09:05:53.041Z,40.68
2022-07-27T09:08:30.381Z,40.67
2022-07-27T09:11:00.373Z,41.37
2022-07-27T09:13:32.602Z,41.37
2022-07-27T09:16:17.648Z,40.75
2022-07-27T09:18:48.030Z,40.13
2022-07-27T09:21:21.256Z,39.90
2022-07-27T09:24:29.310Z,40.72
2022-07-27T09:27:03.698Z,41.05
2022-07-27T09:29:35.694Z,41.12
2022-07-27T09:32:15.757Z,41.51
2022-07-27T09:34:44.653Z,41.37
2022-07-27T09:37:23.003Z,39.85
2022-07-27T09:39:51.052Z,37.17
2022-07-27T09:43:05.713Z,36.60
2022-07-27T09:45:32.696Z,37.21
2022-07-27T09:48:19.169Z,37.97
2022-07-27T09:51:02.151Z,36.38
2022-07-27T09:53:42.824Z,36.75
2022-07-27T09:56:14.698Z,37.31
2022-07-27T09:58:56.725Z,37.23
2022-07-27T10:01:34.984Z,38.20
2022-07-27T10:04:05.610Z,37.10
2022-07-27T10:06:53.502Z,35.53
2022-07-27T10:09:22.045Z,33.96
2022-07-27T10:11:50.192Z,33.32
2022-07-27T10:14:18.259Z,33.03
2022-07-27T10:16:50.955Z,34.08
2022-07-27T10:19:41.394Z,33.26
2022-07-27T10:22:09.262Z,31.58
2022-07-27T10:24:37.468Z,30.67
2022-07-27T10:27:28.408Z,30.37
2022-07-27T10:29:58.508Z,29.67
2022-07-27T10:32:34.289Z,29.23
2022-07-27T10:35:02.493Z,29.13
2022-07-27T10:37:34.886Z,29.01
2022-07-27T10:40:25.215Z,28.89
2022-07-27T10:43:11.673Z,28.98
2022-07-27T10:46:00.207Z,29.14
2022-07-27T10:48:45.918Z,29.25
2022-07-27T10:51:17.549Z,28.96
2022-07-27T10:54:11.477Z,28.41
2022-07-27T10:56:47.671Z,28.61
2022-07-27T10:59:15.652Z,28.45
2022-07-27T11:01:59.386Z,28.55
2022-07-27T11:04:27.331Z,28.48
2022-07-27T11:07:24.030Z,28.35
2022-07-27T11:10:07.635Z,28.08
2022-07-27T11:12:38.142Z,27.87
2022-07-27T11:15:07.620Z,27.33
2022-07-27T11:20:24.416Z,26.67
2022-07-27T11:23:40.794Z,26.36
2022-07-27T11:25:41.058Z,26.33
2022-07-27T11:28:08.815Z,26.33
2022-07-27T11:30:37.263Z,26.28
2022-07-27T11:33:05.918Z,26.45
2022-07-27T11:35:33.848Z,26.48
2022-07-27T11:38:06.589Z,26.66
2022-07-27T11:43:42.634Z,26.36
2022-07-27T11:46:14.999Z,26.27
2022-07-27T11:49:17.491Z,26.11
2022-07-27T11:51:48.600Z,26.26
2022-07-27T11:54:28.462Z,26.36
2022-07-27T11:57:04.726Z,26.54
2022-07-27T11:59:34.626Z,26.66
2022-07-27T12:02:23.022Z,26.63
2022-07-27T12:04:53.587Z,26.76
2022-07-27T12:07:33.783Z,26.67
2022-07-27T12:10:07.087Z,26.33
2022-07-27T12:12:36.789Z,26.37
2022-07-27T12:18:06.948Z,26.44
2022-07-27T12:20:36.662Z,26.35
2022-07-27T12:23:07.788Z,26.34
2022-07-27T12:25:36.607Z,26.32
2022-07-27T12:28:08.875Z,26.32
2022-07-27T12:30:45.886Z,26.40
2022-07-27T12:33:31.085Z,26.25
2022-07-27T12:36:01.134Z,26.17
2022-07-27T12:38:40.528Z,26.48
2022-07-27T12:41:08.504Z,26.54
2022-07-27T12:43:36.842Z,26.56
2022-07-27T12:46:14.412Z,26.69
2022-07-27T12:48:43.552Z,27.02
2022-07-27T12:51:11.638Z,26.97
2022-07-27T12:53:39.835Z,26.57
2022-07-27T12:56:10.222Z,26.34
2022-07-27T12:58:38.000Z,26.39
2022-07-27T13:01:06.232Z,26.19
2022-07-27T13:03:36.896Z,26.33
2022-07-27T13:06:09.259Z,26.39
2022-07-27T13:08:41.082Z,26.54
2022-07-27T13:11:08.909Z,26.38
2022-07-27T13:13:36.744Z,26.73
2022-07-27T13:16:05.057Z,26.77
2022-07-27T13:18:32.967Z,26.66
2022-07-27T13:21:00.762Z,26.71
2022-07-27T13:23:29.584Z,26.54
2022-07-27T13:25:57.413Z,26.68
2022-07-27T13:28:25.135Z,26.96
2022-07-27T13:30:53.417Z,26.85
2022-07-27T13:33:21.146Z,26.67
2022-07-27T13:35:58.988Z,26.95
2022-07-27T13:38:28.734Z,27.09
2022-07-27T13:40:56.731Z,26.96
2022-07-27T13:43:24.518Z,26.27
2022-07-27T13:45:52.474Z,26.30
2022-07-27T13:48:20.343Z,26.15
2022-07-27T13:50:48.101Z,26.09
2022-07-27T13:53:17.393Z,25.99
2022-07-27T13:55:45.570Z,25.80
2022-07-27T13:58:13.612Z,25.66
2022-07-27T14:00:41.735Z,25.63
2022-07-27T14:03:11.228Z,25.84
2022-07-27T14:05:45.404Z,26.24
2022-07-27T14:08:18.416Z,26.43
2022-07-27T14:10:46.169Z,26.57
2022-07-27T14:13:15.843Z,26.58
2022-07-27T14:15:52.857Z,26.27
2022-07-27T14:18:25.380Z,25.94
2022-07-27T14:20:54.414Z,26.12
2022-07-27T14:23:22.860Z,26.17
2022-07-27T14:25:50.798Z,26.47
2022-07-27T14:28:19.198Z,26.82
2022-07-27T14:30:47.981Z,26.86
2022-07-27T14:33:16.604Z,26.79
2022-07-27T14:35:45.478Z,26.80
2022-07-27T14:38:14.192Z,26.75
2022-07-27T14:40:54.286Z,26.60
2022-07-27T14:43:23.288Z,26.60
2022-07-27T14:45:51.215Z,26.50
2022-07-27T14:48:32.157Z,26.42
2022-07-27T14:51:04.900Z,26.10
2022-07-27T14:53:32.885Z,26.15
2022-07-27T14:56:00.579Z,25.94
2022-07-27T14:58:28.459Z,25.73
2022-07-27T15:00:56.427Z,25.50
2022-07-27T15:03:24.443Z,25.52
2022-07-27T15:05:52.423Z,25.52
2022-07-27T15:08:20.952Z,25.33
2022-07-27T15:10:49.301Z,25.02
2022-07-27T15:13:18.062Z,24.82
2022-07-27T15:15:48.601Z,24.76
2022-07-27T15:18:19.382Z,24.69
2022-07-27T15:20:50.762Z,24.81
2022-07-27T15:23:18.515Z,25.19
2022-07-27T15:25:46.255Z,25.38
2022-07-27T15:28:16.127Z,25.32
2022-07-27T15:30:43.807Z,25.11
2022-07-27T15:33:11.476Z,24.87
2022-07-27T15:35:39.336Z,24.50
2022-07-27T15:38:07.458Z,24.24
2022-07-27T15:40:38.165Z,24.02
2022-07-27T15:43:12.148Z,23.90
2022-07-27T15:45:48.294Z,23.92
2022-07-27T15:48:17.929Z,23.96
2022-07-27T15:50:49.267Z,23.95
2022-07-27T15:53:19.328Z,24.07
2022-07-27T15:55:48.058Z,24.21
2022-07-27T15:58:19.493Z,24.14
2022-07-27T16:00:50.142Z,24.10
2022-07-27T16:03:18.798Z,24.18
2022-07-27T16:05:49.923Z,24.15
2022-07-27T16:08:19.231Z,24.13
2022-07-27T16:10:48.909Z,24.02
2022-07-27T16:13:17.204Z,24.15
2022-07-27T16:16:04.101Z,24.20
2022-07-27T16:18:38.311Z,23.98
2022-07-27T16:21:07.744Z,23.97
2022-07-27T16:23:35.864Z,23.89
2022-07-27T16:26:05.751Z,23.74
2022-07-27T16:28:42.427Z,23.74
2022-07-27T16:31:13.829Z,23.92
2022-07-27T16:33:44.374Z,24.19
2022-07-27T16:36:13.062Z,24.31
2022-07-27T16:38:49.531Z,24.30
2022-07-27T16:41:22.531Z,24.11
2022-07-27T16:43:50.961Z,23.82
2022-07-27T16:46:19.060Z,23.50
2022-07-27T16:48:47.988Z,23.19
2022-07-27T16:51:16.223Z,23.16
2022-07-27T16:53:48.565Z,22.92
2022-07-27T16:56:17.110Z,22.94
2022-07-27T16:58:45.452Z,23.10
2022-07-27T17:01:22.347Z,23.20
2022-07-27T17:03:56.757Z,23.28
2022-07-27T17:06:26.214Z,23.35
2022-07-27T17:08:54.643Z,23.27
2022-07-27T17:11:23.461Z,23.14
2022-07-27T17:13:59.194Z,22.91
2022-07-27T17:16:28.787Z,22.73
2022-07-27T17:18:56.866Z,22.61
2022-07-27T17:21:25.161Z,22.59
2022-07-27T17:23:53.200Z,22.54
2022-07-27T17:26:22.830Z,22.57
2022-07-27T17:28:53.215Z,22.60
2022-07-27T17:31:21.421Z,22.48
2022-07-27T17:33:50.283Z,22.56
2022-07-27T17:36:18.566Z,22.52
2022-07-27T17:38:47.451Z,22.50
2022-07-27T17:41:23.525Z,22.48
2022-07-27T17:43:52.850Z,22.23
2022-07-27T17:46:21.213Z,22.06
2022-07-27T17:48:49.027Z,21.83
2022-07-27T17:51:17.490Z,21.63
2022-07-27T17:53:45.568Z,21.44
2022-07-27T17:56:13.431Z,21.44
2022-07-27T17:58:42.953Z,21.30
2022-07-27T18:01:10.760Z,21.15
2022-07-27T18:03:38.569Z,21.12
2022-07-27T18:06:07.015Z,21.00
2022-07-27T18:08:36.198Z,20.92
2022-07-27T18:11:04.123Z,20.79
2022-07-27T18:13:38.894Z,20.72
2022-07-27T18:16:12.097Z,20.65
2022-07-27T18:18:42.148Z,20.57
2022-07-27T18:21:10.711Z,20.44
2022-07-27T18:23:39.291Z,20.27
2022-07-27T18:26:07.508Z,20.19
2022-07-27T18:28:39.533Z,20.23
2022-07-27T18:31:09.989Z,20.29
2022-07-27T18:33:40.402Z,20.33
2022-07-27T18:36:08.514Z,20.32
2022-07-27T18:38:36.693Z,20.18
2022-07-27T18:41:04.599Z,20.12
2022-07-27T18:43:32.349Z,19.99
2022-07-27T18:46:00.678Z,19.86
2022-07-27T18:48:28.913Z,19.76
2022-07-27T18:50:57.061Z,19.65
2022-07-27T18:53:25.035Z,19.53
2022-07-27T18:55:56.308Z,19.37
2022-07-27T18:58:24.947Z,19.43
2022-07-27T19:00:54.823Z,19.13
2022-07-27T19:03:22.763Z,18.91
2022-07-27T19:05:53.151Z,18.78
2022-07-27T19:08:22.045Z,18.68
2022-07-27T19:10:51.169Z,18.57
2022-07-27T19:13:18.985Z,18.46
2022-07-27T19:15:46.883Z,18.37
2022-07-27T19:18:14.620Z,18.32
2022-07-27T19:20:42.584Z,18.27
2022-07-27T19:23:10.553Z,18.20
2022-07-27T19:25:38.336Z,18.05
2022-07-27T19:28:06.405Z,17.92
2022-07-27T19:30:34.511Z,17.86
2022-07-27T19:33:02.439Z,17.73
2022-07-27T19:35:30.129Z,17.80
2022-07-27T19:37:58.116Z,17.68
2022-07-27T19:43:15.252Z,17.50
2022-07-27T19:45:43.598Z,17.47
2022-07-27T19:48:11.877Z,17.35
2022-07-27T19:50:40.022Z,17.22
2022-07-27T19:53:08.124Z,17.10
2022-07-27T19:55:35.917Z,16.95
2022-07-27T19:58:03.889Z,16.94
2022-07-27T20:00:32.108Z,16.83
2022-07-27T20:02:59.905Z,16.77
2022-07-27T20:05:28.056Z,16.72
2022-07-27T20:07:55.870Z,16.66
2022-07-27T20:10:25.329Z,16.54
2022-07-27T20:12:53.625Z,16.48
2022-07-27T20:15:22.517Z,16.48
2022-07-27T20:17:50.731Z,16.57
2022-07-27T20:20:19.090Z,16.48
2022-07-27T20:22:46.863Z,16.46
2022-07-27T20:25:15.108Z,16.61
2022-07-27T20:27:43.228Z,16.62
2022-07-27T20:30:14.463Z,16.67
2022-07-27T20:32:42.512Z,16.80
2022-07-27T20:35:11.283Z,16.76
2022-07-27T20:37:39.306Z,16.79
2022-07-27T20:40:07.656Z,16.76
2022-07-27T20:42:35.638Z,16.79
2022-07-27T20:45:11.155Z,16.74
2022-07-27T20:47:39.849Z,16.68
2022-07-27T20:50:10.334Z,16.74
2022-07-27T20:52:39.479Z,16.64
2022-07-27T20:55:09.063Z,16.62
2022-07-27T20:57:37.156Z,16.48
2022-07-27T21:00:07.234Z,16.58
2022-07-27T21:02:35.348Z,16.43
2022-07-27T21:05:03.811Z,16.42
2022-07-27T21:07:31.616Z,16.37
2022-07-27T21:10:00.028Z,16.32
2022-07-27T21:12:27.863Z,16.31
2022-07-27T21:14:55.726Z,16.24
2022-07-27T21:17:23.835Z,16.21
2022-07-27T21:19:53.381Z,16.21
2022-07-27T21:22:21.184Z,16.18
2022-07-27T21:24:49.751Z,16.20
2022-07-27T21:27:20.929Z,16.25
2022-07-27T21:29:49.413Z,16.28
2022-07-27T21:32:18.206Z,16.23
2022-07-27T21:34:45.940Z,16.20
2022-07-27T21:37:13.759Z,16.15
2022-07-27T21:39:41.749Z,16.03
2022-07-27T21:42:09.522Z,15.99
2022-07-27T21:44:37.504Z,16.07
2022-07-27T21:47:13.151Z,15.94
2022-07-27T21:49:41.632Z,15.87
2022-07-27T21:52:11.228Z,15.83
2022-07-27T21:54:39.522Z,15.75
2022-07-27T21:57:07.213Z,15.78
2022-07-27T21:59:35.182Z,15.76
2022-07-27T22:02:03.002Z,15.64
2022-07-27T22:04:30.844Z,15.63
2022-07-27T22:06:58.848Z,15.62
2022-07-27T22:09:26.621Z,15.63
2022-07-27T22:11:54.378Z,15.60
2022-07-27T22:14:24.518Z,15.42
2022-07-27T22:16:53.081Z,15.35
2022-07-27T22:19:20.953Z,15.27
2022-07-27T22:21:48.966Z,15.23
2022-07-27T22:24:17.528Z,15.14
2022-07-27T22:26:45.389Z,15.13
2022-07-27T22:29:13.278Z,15.08
2022-07-27T22:31:41.113Z,15.00
2022-07-27T22:34:08.903Z,15.03
2022-07-27T22:36:36.865Z,15.04
2022-07-27T22:39:04.564Z,14.94
2022-07-27T22:41:32.395Z,14.87
2022-07-27T22:44:00.318Z,14.79
2022-07-27T22:46:32.386Z,14.71
2022-07-27T22:49:00.175Z,14.62
2022-07-27T22:51:49.534Z,14.53
2022-07-27T22:54:16.889Z,14.44
2022-07-27T22:56:45.840Z,14.35
2022-07-27T22:59:13.590Z,14.29
2022-07-27T23:01:47.569Z,14.24
2022-07-27T23:04:17.180Z,14.18
2022-07-27T23:06:46.295Z,14.17
2022-07-27T23:09:14.935Z,14.07
2022-07-27T23:11:44.229Z,13.92
2022-07-27T23:14:13.074Z,13.90
2022-07-27T23:16:41.217Z,13.85
2022-07-27T23:19:09.576Z,14.03
2022-07-27T23:21:37.604Z,13.86
2022-07-27T23:24:06.162Z,13.75
2022-07-27T23:26:34.042Z,13.71
2022-07-27T23:29:02.173Z,13.57
2022-07-27T23:31:30.045Z,13.50
2022-07-27T23:33:58.143Z,13.49
2022-07-27T23:36:25.899Z,13.41
2022-07-27T23:38:53.598Z,13.41
2022-07-27T23:41:21.656Z,13.36
2022-07-27T23:43:49.357Z,13.32
2022-07-27T23:46:17.074Z,13.34
2022-07-27T23:48:45.236Z,13.21
2022-07-27T23:51:19.807Z,13.27
2022-07-27T23:53:48.451Z,13.34
2022-07-27T23:56:16.159Z,13.30
2022-07-27T23:58:44.951Z,13.24
